Time;durP1;ratioP1;P1;durP2;ratioP2;P2;SDS_P1;SDS_P2;PMS_P1;PMS_P2;Temp;Humidity;BMP_temperature;BMP_pressure;BME280_temperature;BME280_humidity;BME280_pressure;Samples;Min_cycle;Max_cycle;Signal;HPM_P1;HPM_P2
2021/09/15 00:00:39;;;;;;;8.00;7.20;;;17.00;71.00;;;16.87;56.56;95046.47;5012769;28;20209;-80
2021/09/15 00:03:06;;;;;;;9.90;7.32;;;17.10;71.10;;;16.87;56.32;95053.59;4996392;28;20299;-79
2021/09/15 00:05:33;;;;;;;10.07;7.45;;;17.10;71.20;;;16.84;56.80;95054.84;5012766;28;20626;-78
2021/09/15 00:08:00;;;;;;;7.68;6.85;;;17.00;71.30;;;16.85;57.15;95048.53;5012215;28;20258;-78
2021/09/15 00:10:28;;;;;;;10.18;7.20;;;17.00;71.30;;;16.86;56.31;95046.72;5012338;28;20660;-79
2021/09/15 00:12:55;;;;;;;8.77;7.80;;;17.00;71.40;;;16.84;56.84;95049.56;5012352;28;20197;-78
2021/09/15 00:15:22;;;;;;;9.73;7.57;;;17.00;71.40;;;16.86;56.84;95044.06;5012285;28;20232;-80
2021/09/15 00:17:49;;;;;;;11.18;7.82;;;17.00;71.60;;;16.87;57.01;95046.47;5024756;28;20192;-80
2021/09/15 00:20:16;;;;;;;9.82;8.25;;;17.00;71.70;;;16.83;57.00;95040.00;5031963;28;20290;-79
2021/09/15 00:22:44;;;;;;;8.95;8.05;;;17.00;71.70;;;16.87;57.07;95049.13;5031673;28;20228;-78
2021/09/15 00:25:11;;;;;;;8.68;7.55;;;17.00;71.90;;;16.87;56.79;95037.69;4995779;28;20233;-80
2021/09/15 00:27:38;;;;;;;8.52;7.72;;;17.00;71.90;;;16.86;56.88;95038.75;5014890;28;20276;-79
2021/09/15 00:30:07;;;;;;;9.00;7.88;;;17.00;71.90;;;16.88;57.21;95041.97;4995700;28;20282;-79
2021/09/15 00:32:34;;;;;;;7.68;6.97;;;17.00;71.90;;;16.85;57.22;95037.16;5012156;28;20207;-79
2021/09/15 00:35:06;;;;;;;8.93;8.02;;;17.00;71.80;;;16.87;57.30;95048.28;5029271;28;20596;-79
2021/09/15 00:37:33;;;;;;;8.85;7.95;;;17.00;72.00;;;16.85;56.99;95037.94;5014961;28;20208;-79
2021/09/15 00:40:00;;;;;;;9.50;8.50;;;17.00;72.10;;;16.85;57.63;95045.88;5012201;28;20259;-79
2021/09/15 00:42:28;;;;;;;9.80;8.80;;;17.00;72.10;;;16.84;57.83;95038.97;5002126;28;20220;-80
2021/09/15 00:44:57;;;;;;;9.20;8.30;;;16.90;72.20;;;16.83;57.84;95034.69;5031754;28;20219;-80
2021/09/15 00:47:25;;;;;;;9.77;8.77;;;17.00;72.30;;;16.83;58.11;95040.00;5021332;28;20231;-79
2021/09/15 00:49:53;;;;;;;11.15;8.75;;;17.10;72.40;;;16.79;58.22;95033.56;5010635;28;20279;-79
2021/09/15 00:52:20;;;;;;;9.00;8.10;;;17.00;72.40;;;16.81;57.86;95036.78;5011581;28;20246;-80
2021/09/15 00:54:48;;;;;;;10.57;8.60;;;17.00;72.50;;;16.78;58.00;95024.81;5011980;28;20250;-79
2021/09/15 00:57:16;;;;;;;10.55;8.98;;;17.00;72.60;;;16.77;57.75;95022.38;4995380;28;20220;-79
2021/09/15 00:59:44;;;;;;;9.43;8.43;;;17.00;73.50;;;16.77;57.86;95017.91;4993639;28;20192;-80
2021/09/15 01:02:13;;;;;;;9.18;8.07;;;16.90;72.60;;;16.78;58.13;95016.03;4995010;28;20224;-79
2021/09/15 01:04:44;;;;;;;9.23;8.32;;;16.90;72.70;;;16.76;57.92;95010.16;5000374;28;20654;-79
2021/09/15 01:07:17;;;;;;;9.23;8.23;;;16.90;72.70;;;16.74;57.51;95010.38;5021984;28;20691;-79
2021/09/15 01:09:48;;;;;;;8.90;8.00;;;16.90;72.60;;;16.71;57.60;95008.22;4995554;28;20576;-79
2021/09/15 01:12:20;;;;;;;11.25;9.07;;;16.90;72.60;;;16.69;58.11;95020.06;5012268;28;20642;-79
2021/09/15 01:15:07;;;;;;;9.88;8.75;;;16.90;72.50;;;16.62;57.26;95020.97;5011927;28;20200;-79
2021/09/15 01:18:18;;;;;;;9.48;8.05;;;16.90;72.60;;;16.57;57.92;95025.34;5011567;28;20212;-79
2021/09/15 01:21:09;;;;;;;8.50;7.50;;;16.80;73.30;;;16.51;57.89;95027.03;5017012;28;20230;-80
2021/09/15 01:23:56;;;;;;;9.10;8.05;;;16.90;73.10;;;16.47;57.83;95026.69;5031419;28;20232;-79
2021/09/15 01:26:42;;;;;;;10.07;8.98;;;16.70;72.60;;;16.44;58.21;95031.63;5019758;28;20234;-80
2021/09/15 01:29:32;;;;;;;12.95;9.65;;;16.70;72.70;;;16.43;58.56;95030.81;5024992;28;20693;-79
2021/09/15 01:32:15;;;;;;;12.02;10.00;;;16.70;73.20;;;16.41;59.10;95032.88;5024508;28;20310;-79
2021/09/15 01:34:51;;;;;;;13.40;10.10;;;16.80;73.40;;;16.43;58.62;95035.28;5008288;28;20200;-79
2021/09/15 01:37:22;;;;;;;9.98;8.95;;;16.70;73.30;;;16.40;58.77;95033.91;5002406;28;20215;-79
2021/09/15 01:39:54;;;;;;;12.50;9.57;;;16.60;73.20;;;16.40;58.58;95030.47;5023700;28;20192;-78
2021/09/15 01:42:23;;;;;;;10.73;9.63;;;16.60;74.30;;;16.40;58.56;95027.81;5026966;28;20559;-78
2021/09/15 01:44:51;;;;;;;10.02;9.02;;;16.60;73.60;;;16.38;58.74;95025.41;5020650;28;20196;-79
2021/09/15 01:47:22;;;;;;;11.82;9.70;;;16.60;73.60;;;16.36;59.42;95024.00;5025386;28;20212;-79
2021/09/15 01:49:50;;;;;;;12.70;9.38;;;16.60;73.70;;;16.39;58.94;95026.19;4985053;28;20200;-79
2021/09/15 01:52:18;;;;;;;10.07;9.07;;;16.60;73.80;;;16.39;58.93;95018.25;5020367;28;20303;-78
2021/09/15 01:54:46;;;;;;;11.02;9.77;;;16.50;73.80;;;16.38;58.83;95017.47;5003701;28;20200;-79
2021/09/15 01:57:15;;;;;;;13.00;10.13;;;16.60;74.00;;;16.37;59.13;95015.84;5022266;28;20278;-78
2021/09/15 02:00:01;;;;;;;11.20;10.00;;;16.50;74.00;;;16.33;59.40;95010.19;5034287;28;20736;-79
2021/09/15 02:02:42;;;;;;;11.07;9.77;;;16.60;74.10;;;16.35;59.45;95017.09;5020126;28;20227;-79
2021/09/15 02:05:20;;;;;;;11.13;9.30;;;16.60;74.20;;;16.35;58.98;95009.94;5014604;28;20216;-79
2021/09/15 02:07:59;;;;;;;10.68;9.57;;;16.50;74.10;;;16.34;59.11;95008.34;5021320;28;20200;-78
2021/09/15 02:10:44;;;;;;;11.95;9.63;;;16.50;74.10;;;16.29;59.18;95003.72;5030673;28;20221;-79
2021/09/15 02:13:12;;;;;;;9.82;8.75;;;16.50;74.10;;;16.30;59.18;95001.88;4997555;28;20205;-78
2021/09/15 02:15:39;;;;;;;11.88;9.20;;;16.50;74.10;;;16.27;59.06;95005.78;5014608;28;20720;-79
2021/09/15 02:18:06;;;;;;;9.90;8.90;;;16.50;74.10;;;16.26;59.15;95006.00;5014551;28;20200;-79
2021/09/15 02:20:53;;;;;;;10.57;9.13;;;16.50;74.20;;;16.22;58.92;95010.97;5019992;28;20227;-78
2021/09/15 02:23:38;;;;;;;11.43;10.25;;;16.50;74.10;;;16.18;59.19;95007.13;5023134;28;20248;-78
2021/09/15 02:26:18;;;;;;;11.55;9.75;;;16.40;74.10;;;16.17;59.33;95009.00;5012837;28;20665;-78
2021/09/15 02:28:52;;;;;;;11.73;9.30;;;16.40;74.20;;;16.15;59.46;95005.75;5007104;28;20196;-78
2021/09/15 02:31:38;;;;;;;10.82;9.65;;;16.40;74.30;;;16.12;59.59;95005.38;5020508;28;20323;-78
2021/09/15 02:34:25;;;;;;;11.15;8.70;;;16.30;74.30;;;16.10;59.76;95000.31;5007093;28;20200;-79
2021/09/15 02:37:22;;;;;;;10.50;8.52;;;16.40;74.30;;;16.05;59.59;95002.84;4999110;28;20225;-79
2021/09/15 02:40:09;;;;;;;10.65;9.52;;;16.30;74.70;;;16.05;59.92;95000.19;5015629;28;20627;-78
2021/09/15 02:42:55;;;;;;;11.45;9.57;;;16.30;74.40;;;16.02;59.51;95005.91;5013691;28;20228;-79
2021/09/15 02:45:27;;;;;;;10.00;9.00;;;16.30;74.50;;;15.99;59.78;95001.88;5017332;28;20636;-79
2021/09/15 02:48:07;;;;;;;10.43;9.32;;;16.20;74.50;;;15.99;59.55;95011.66;5032634;28;20230;-79
2021/09/15 02:51:03;;;;;;;11.20;9.98;;;16.20;74.50;;;15.95;59.93;95008.66;5004343;28;20706;-79
2021/09/15 02:53:44;;;;;;;10.20;8.88;;;16.30;74.80;;;15.92;59.89;95010.94;4998218;28;20211;-79
2021/09/15 02:56:36;;;;;;;12.95;10.25;;;16.20;74.70;;;15.88;59.75;95018.53;5011746;28;20756;-78
2021/09/15 02:59:17;;;;;;;12.20;9.80;;;16.10;74.60;;;15.83;59.77;95002.50;5005773;28;20716;-79
2021/09/15 03:02:00;;;;;;;11.20;9.98;;;16.10;74.70;;;15.86;59.97;95010.00;5019510;28;20233;-80
2021/09/15 03:04:50;;;;;;;11.15;9.50;;;16.10;74.80;;;15.84;59.80;95006.75;5028965;28;20224;-79
2021/09/15 03:07:53;;;;;;;10.70;9.32;;;16.10;74.80;;;15.81;59.83;95007.97;4991417;28;20208;-79
2021/09/15 03:10:21;;;;;;;10.68;9.60;;;16.10;74.80;;;15.79;60.23;94999.44;5012473;28;20730;-79
2021/09/15 03:12:48;;;;;;;12.50;9.98;;;16.10;74.90;;;15.76;60.25;94999.91;5016266;28;20197;-79
2021/09/15 03:15:17;;;;;;;13.63;10.35;;;16.10;75.00;;;15.76;60.28;94999.09;5033111;28;20200;-79
2021/09/15 03:17:45;;;;;;;11.85;9.82;;;16.10;75.00;;;15.74;60.35;94996.66;5016621;28;20203;-79
2021/09/15 03:20:13;;;;;;;10.68;9.57;;;16.00;75.00;;;15.73;60.33;94996.91;5013399;28;20200;-78
2021/09/15 03:22:41;;;;;;;11.68;9.30;;;16.00;75.00;;;15.69;60.33;94992.03;4981516;28;20196;-80
2021/09/15 03:25:09;;;;;;;11.30;9.90;;;15.90;75.00;;;15.67;60.16;94985.38;5027828;28;20214;-79
2021/09/15 03:27:36;;;;;;;10.57;9.07;;;15.90;75.00;;;15.65;60.28;94987.44;4997028;28;20673;-79
2021/09/15 03:30:06;;;;;;;11.77;9.70;;;16.00;75.10;;;15.63;60.09;94982.34;4980897;28;20211;-79
2021/09/15 03:32:34;;;;;;;13.02;10.70;;;15.90;75.40;;;15.62;60.54;94977.28;5013932;28;20604;-79
2021/09/15 03:35:04;;;;;;;11.30;10.10;;;15.80;75.30;;;15.61;60.86;94986.25;5013762;28;20626;-78
2021/09/15 03:37:32;;;;;;;15.05;10.35;;;15.80;75.30;;;15.58;60.70;94981.41;5032784;28;20192;-79
2021/09/15 03:40:00;;;;;;;11.73;10.02;;;15.80;75.40;;;15.59;60.79;94991.75;5016818;28;20215;-79
2021/09/15 03:42:29;;;;;;;13.95;9.98;;;15.80;75.50;;;15.58;60.78;94981.41;4996685;28;20201;-79
2021/09/15 03:44:57;;;;;;;11.30;10.05;;;15.90;75.60;;;15.54;60.67;94970.47;5022942;28;20303;-79
2021/09/15 03:47:24;;;;;;;11.90;9.68;;;15.70;75.50;;;15.57;60.90;94972.66;5026684;28;20200;-79
2021/09/15 03:49:52;;;;;;;11.00;9.90;;;15.80;75.60;;;15.55;60.76;94974.75;5015483;28;20199;-79
2021/09/15 03:52:20;;;;;;;12.65;11.30;;;15.80;75.70;;;15.53;60.79;94974.94;5020546;28;20220;-79
2021/09/15 03:54:48;;;;;;;10.73;9.63;;;15.80;75.70;;;15.50;60.98;94974.56;5016451;28;20207;-79
2021/09/15 03:57:16;;;;;;;12.30;10.30;;;15.80;75.60;;;15.51;60.77;94970.91;5016665;28;20588;-78
2021/09/15 03:59:44;;;;;;;13.07;10.70;;;15.70;75.60;;;15.48;60.78;94969.50;5012604;28;20255;-79
2021/09/15 04:02:11;;;;;;;13.13;10.25;;;15.70;75.50;;;15.43;60.83;94969.38;4996419;28;20212;-79
2021/09/15 04:04:43;;;;;;;12.05;10.38;;;15.70;76.40;;;15.44;60.92;94972.81;4997205;28;20690;-77
2021/09/15 04:07:11;;;;;;;12.13;10.82;;;15.70;75.70;;;15.42;61.24;94966.97;5004861;28;20800;-79
2021/09/15 04:09:40;;;;;;;12.40;10.88;;;15.70;75.80;;;15.40;61.21;94963.72;5010313;28;20228;-79
2021/09/15 04:12:08;;;;;;;11.93;10.68;;;15.60;75.90;;;15.40;61.37;94969.81;5012571;28;20212;-79
2021/09/15 04:14:36;;;;;;;13.90;12.15;;;15.60;75.90;;;15.38;61.65;94966.59;5028901;28;20651;-79
2021/09/15 04:17:04;;;;;;;13.50;11.20;;;15.60;76.00;;;15.38;61.23;94958.66;5015969;28;20221;-79
2021/09/15 04:19:32;;;;;;;13.15;11.75;;;15.60;76.00;;;15.34;61.34;94958.28;5011935;28;20200;-79
2021/09/15 04:22:00;;;;;;;12.13;10.80;;;15.60;76.10;;;15.35;61.28;94961.72;4995896;28;20308;-79
2021/09/15 04:32:52;;;;;;;11.75;10.55;;;15.50;76.20;;;15.30;61.61;94961.59;5023459;28;20204;-79
2021/09/15 04:35:20;;;;;;;12.90;11.38;;;15.50;76.20;;;15.28;61.50;94964.47;5032052;28;20298;-79
2021/09/15 04:37:48;;;;;;;14.45;10.63;;;15.50;76.30;;;15.27;61.68;94957.56;5011714;28;20200;-79
2021/09/15 04:40:15;;;;;;;15.45;11.70;;;15.60;76.40;;;15.28;61.56;94959.19;4995648;28;20627;-78
2021/09/15 04:42:42;;;;;;;12.98;11.43;;;15.50;76.40;;;15.28;61.65;94964.47;5014389;28;20231;-79
2021/09/15 04:45:12;;;;;;;13.85;11.15;;;15.50;76.60;;;15.26;61.87;94955.13;4997762;28;20238;-79
2021/09/15 04:47:40;;;;;;;14.85;11.77;;;15.50;77.40;;;15.32;61.64;94959.56;4999216;28;20668;-79
2021/09/15 04:50:08;;;;;;;16.15;13.05;;;15.50;76.80;;;15.32;61.98;94952.41;5019356;28;20658;-78
2021/09/15 04:52:37;;;;;;;13.82;11.75;;;15.50;76.90;;;15.34;61.61;94952.19;5011210;28;20221;-79
2021/09/15 04:55:05;;;;;;;12.07;10.80;;;15.50;76.90;;;15.36;62.05;94953.56;4989038;28;20201;-78
2021/09/15 04:57:32;;;;;;;15.48;11.68;;;15.50;76.90;;;15.37;61.68;94952.56;5012036;28;20205;-79
2021/09/15 04:59:59;;;;;;;12.07;10.80;;;15.60;77.10;;;15.39;62.03;94954.97;5014198;28;20671;-79
2021/09/15 05:02:27;;;;;;;16.27;11.40;;;15.60;77.00;;;15.40;62.24;94948.66;5000098;28;20598;-78
2021/09/15 05:04:56;;;;;;;13.80;12.05;;;15.50;77.00;;;15.44;62.04;94951.66;5027754;28;20236;-78
2021/09/15 05:07:35;;;;;;;12.63;11.32;;;15.60;77.10;;;15.48;62.17;94958.94;5018466;28;20197;-79
2021/09/15 05:10:05;;;;;;;14.00;11.38;;;15.60;77.20;;;15.51;62.23;94947.94;5017139;28;20197;-79
2021/09/15 05:12:32;;;;;;;14.85;12.13;;;15.60;77.30;;;15.57;61.87;94953.38;5018377;28;20200;-78
2021/09/15 05:15:01;;;;;;;14.15;12.23;;;15.60;77.30;;;15.60;61.96;94950.25;5010644;28;20255;-78
2021/09/15 05:17:28;;;;;;;13.10;11.73;;;15.70;77.40;;;15.62;61.87;94945.56;5019323;28;20192;-79
2021/09/15 05:19:56;;;;;;;14.43;11.90;;;15.70;77.40;;;15.71;61.99;94952.19;5025604;28;20196;-80
2021/09/15 05:22:23;;;;;;;11.50;10.35;;;15.70;77.50;;;15.75;61.90;94953.34;5020867;28;20201;-79
2021/09/15 05:24:51;;;;;;;13.00;11.65;;;15.70;77.50;;;15.79;62.19;94951.06;4999468;28;20220;-79
2021/09/15 05:27:22;;;;;;;14.35;12.18;;;15.80;77.60;;;15.84;62.24;94945.91;4996252;28;20216;-79
2021/09/15 05:29:49;;;;;;;14.45;11.80;;;15.80;77.70;;;15.91;62.42;94953.78;5001802;28;20207;-79
2021/09/15 05:32:17;;;;;;;14.10;11.52;;;15.90;77.80;;;15.93;62.26;94941.94;5000460;28;20235;-79
2021/09/15 05:34:45;;;;;;;16.55;11.85;;;15.90;77.80;;;15.99;62.04;94943.69;5022162;28;20564;-79
2021/09/15 05:37:12;;;;;;;15.43;12.50;;;15.90;77.80;;;16.09;62.25;94945.78;5021659;28;20304;-79
2021/09/15 05:39:39;;;;;;;13.75;12.15;;;16.00;77.90;;;16.16;62.10;94948.31;5023522;28;20192;-79
2021/09/15 05:42:07;;;;;;;14.93;12.60;;;16.10;78.10;;;16.22;62.07;94941.34;5007244;28;20431;-79
2021/09/15 05:44:35;;;;;;;16.30;13.25;;;16.10;78.00;;;16.30;62.45;94947.09;5012230;28;20212;-80
2021/09/15 05:47:04;;;;;;;14.27;12.77;;;16.20;78.10;;;16.39;62.73;94944.13;5000074;28;20212;-78
2021/09/15 05:49:33;;;;;;;13.80;12.38;;;16.40;78.40;;;16.45;62.35;94936.09;4999748;28;20197;-79
2021/09/15 05:52:01;;;;;;;14.50;12.25;;;16.40;78.30;;;16.56;62.12;94942.44;5007416;28;20277;-79
2021/09/15 05:54:29;;;;;;;15.27;12.40;;;16.40;78.30;;;16.67;62.22;94953.28;5015959;28;20262;-80
2021/09/15 05:56:57;;;;;;;15.30;12.75;;;16.50;78.40;;;16.77;62.44;94949.03;5015244;28;20232;-79
2021/09/15 05:59:25;;;;;;;14.30;12.15;;;16.50;78.40;;;16.84;62.36;94946.25;5013747;28;20196;-79
2021/09/15 06:01:52;;;;;;;14.82;11.50;;;16.70;78.50;;;16.99;62.42;94952.97;5015303;28;20354;-78
2021/09/15 06:04:20;;;;;;;13.77;12.35;;;16.80;78.60;;;17.09;61.96;94950.56;5001617;28;20636;-79
2021/09/15 06:06:59;;;;;;;16.55;13.25;;;16.80;78.70;;;17.21;62.25;94955.81;5000410;28;20686;-79
2021/09/15 06:09:29;;;;;;;14.77;12.85;;;16.90;78.60;;;17.31;62.25;94948.09;5015204;28;20192;-79
2021/09/15 06:11:57;;;;;;;14.35;12.32;;;17.00;78.70;;;17.44;62.21;94947.84;5014993;28;20219;-79
2021/09/15 06:14:26;;;;;;;15.95;13.07;;;17.10;78.70;;;17.57;62.34;94952.06;5020064;28;20613;-78
2021/09/15 06:16:54;;;;;;;13.77;12.27;;;17.30;78.90;;;17.70;62.39;94955.50;5017524;28;20593;-79
2021/09/15 06:19:22;;;;;;;13.50;12.13;;;17.30;78.80;;;17.83;62.03;94959.72;5017815;28;20218;-80
2021/09/15 06:22:09;;;;;;;13.90;12.35;;;17.50;78.90;;;17.96;62.17;94964.00;5004639;28;20216;-79
2021/09/15 06:24:54;;;;;;;15.18;13.13;;;17.60;78.80;;;18.10;62.00;94967.97;5023406;28;20230;-79
2021/09/15 06:27:26;;;;;;;15.00;12.48;;;17.70;78.70;;;18.24;61.76;94963.19;5001960;28;20665;-79
2021/09/15 06:29:53;;;;;;;22.35;13.85;;;17.80;78.80;;;18.34;61.60;94957.22;4997845;28;20213;-80
2021/09/15 06:32:22;;;;;;;13.55;12.15;;;18.00;78.80;;;18.49;61.58;94951.38;5022434;28;20219;-79
2021/09/15 06:34:49;;;;;;;13.85;12.40;;;18.10;78.70;;;18.63;61.37;94960.63;5026206;28;20717;-79
2021/09/15 06:37:17;;;;;;;15.23;12.98;;;18.20;78.70;;;18.77;61.61;94962.97;4992920;28;20678;-79
2021/09/15 06:39:44;;;;;;;14.07;12.57;;;18.40;78.80;;;18.84;61.75;94945.00;5025259;28;20208;-79
2021/09/15 06:42:12;;;;;;;15.68;13.43;;;18.50;79.50;;;19.00;60.96;94948.72;5018174;28;20249;-79
2021/09/15 06:44:39;;;;;;;19.05;13.90;;;18.50;78.50;;;19.13;61.22;94950.25;5022902;28;20212;-79
2021/09/15 06:47:07;;;;;;;14.30;12.80;;;18.70;78.50;;;19.23;61.42;94947.72;4988728;28;20295;-80
2021/09/15 06:49:34;;;;;;;15.80;13.43;;;18.70;78.40;;;19.36;61.43;94944.72;5023971;28;20196;-79
2021/09/15 06:52:02;;;;;;;16.38;13.57;;;18.90;78.40;;;19.48;61.23;94947.25;5030635;28;20251;-79
2021/09/15 06:54:33;;;;;;;13.60;12.20;;;19.00;78.30;;;19.60;61.06;94943.66;5004125;28;20193;-78
2021/09/15 06:57:01;;;;;;;14.98;12.98;;;19.20;78.30;;;19.72;61.01;94943.53;5023261;28;20836;-80
2021/09/15 06:59:29;;;;;;;13.93;12.43;;;19.20;78.00;;;19.78;60.77;94939.88;5045384;28;20208;-80
2021/09/15 07:01:56;;;;;;;13.77;12.27;;;19.30;77.90;;;19.89;60.59;94946.16;5029924;28;20683;-78
2021/09/15 07:04:24;;;;;;;14.60;13.07;;;19.40;77.90;;;19.99;60.89;94947.09;5030805;28;20335;-79
2021/09/15 07:06:52;;;;;;;13.90;12.48;;;19.50;77.80;;;20.09;60.40;94945.56;5022778;28;20216;-78
2021/09/15 07:09:19;;;;;;;15.02;12.45;;;19.60;77.70;;;20.19;60.63;94947.53;5015965;28;20297;-78
2021/09/15 07:11:46;;;;;;;13.10;11.77;;;19.70;77.60;;;20.29;60.08;94956.41;5005717;28;20210;-78
2021/09/15 07:14:14;;;;;;;13.40;11.93;;;19.80;77.50;;;20.41;59.87;94947.44;5021916;28;20222;-78
2021/09/15 07:16:41;;;;;;;14.60;12.80;;;19.90;77.40;;;20.50;60.11;94945.16;4997296;28;20248;-78
2021/09/15 07:19:09;;;;;;;12.93;11.55;;;20.00;77.50;;;20.61;60.29;94946.84;5023454;28;20192;-78
2021/09/15 07:21:37;;;;;;;13.13;11.77;;;20.10;77.30;;;20.71;59.91;94946.13;5015396;28;20307;-79
2021/09/15 07:24:04;;;;;;;13.10;11.80;;;20.20;77.20;;;20.78;59.65;94942.19;5017856;28;20597;-78
2021/09/15 07:26:31;;;;;;;13.57;12.27;;;20.30;77.10;;;20.88;59.61;94946.00;5004846;28;20216;-79
2021/09/15 07:28:59;;;;;;;13.98;11.90;;;20.40;76.80;;;20.94;59.29;94940.44;5014277;28;20205;-78
2021/09/15 07:31:26;;;;;;;13.10;11.77;;;20.50;76.90;;;21.01;59.32;94940.22;5023536;28;20248;-79
2021/09/15 07:33:53;;;;;;;12.18;10.88;;;20.50;76.60;;;21.08;59.43;94930.16;5031259;28;20256;-79
2021/09/15 07:36:21;;;;;;;12.75;11.43;;;20.60;76.50;;;21.16;59.14;94930.72;5028804;28;20716;-79
2021/09/15 07:38:49;;;;;;;16.13;13.00;;;20.70;76.40;;;21.21;59.11;94930.75;4998701;28;20229;-79
2021/09/15 07:41:16;;;;;;;14.07;11.40;;;20.80;76.40;;;21.31;58.90;94924.66;5019569;28;20226;-78
2021/09/15 07:43:43;;;;;;;13.45;12.13;;;20.80;76.60;;;21.42;58.67;94931.63;5022639;28;20198;-78
2021/09/15 07:46:10;;;;;;;13.02;11.73;;;20.90;76.40;;;21.51;58.80;94927.41;5023997;28;20369;-80
2021/09/15 07:48:37;;;;;;;12.98;11.65;;;21.00;76.30;;;21.59;58.92;94932.28;5009192;28;20196;-80
2021/09/15 07:51:05;;;;;;;12.07;10.88;;;21.10;76.40;;;21.71;58.55;94932.06;5009486;28;20213;-79
2021/09/15 07:53:33;;;;;;;11.40;10.30;;;21.10;76.20;;;21.82;58.66;94932.09;5026039;28;20199;-80
2021/09/15 07:56:02;;;;;;;12.88;11.52;;;21.30;77.10;;;21.94;58.27;94930.00;5009074;28;20247;-80
2021/09/15 07:58:29;;;;;;;12.23;10.93;;;21.30;76.00;;;22.05;58.13;94928.94;5009197;28;20202;-80
2021/09/15 08:00:56;;;;;;;11.57;10.43;;;21.50;76.00;;;22.18;58.20;94934.84;5010472;28;20644;-78
2021/09/15 08:03:23;;;;;;;12.25;11.05;;;21.60;76.20;;;22.30;57.95;94940.75;5022606;28;20199;-79
2021/09/15 08:05:51;;;;;;;11.27;10.05;;;21.70;76.10;;;22.43;57.87;94936.78;5007982;28;20230;-78
2021/09/15 08:08:18;;;;;;;12.40;10.65;;;21.80;75.80;;;22.53;57.73;94931.47;5019668;28;20183;-79
2021/09/15 08:10:45;;;;;;;12.00;10.82;;;21.80;75.60;;;22.64;57.43;94923.44;5006494;28;20217;-79
2021/09/15 08:13:12;;;;;;;13.70;10.75;;;22.00;75.50;;;22.76;57.25;94928.50;4995748;28;20285;-80
2021/09/15 08:15:39;;;;;;;13.07;11.27;;;22.10;75.50;;;22.84;57.15;94926.09;5012875;28;20275;-79
2021/09/15 08:18:07;;;;;;;12.40;11.18;;;22.20;75.50;;;22.94;57.27;94925.28;5011064;28;20236;-80
2021/09/15 08:20:55;;;;;;;11.25;10.23;;;22.30;75.40;;;23.05;56.86;94920.72;5012138;28;20327;-79
2021/09/15 08:23:22;;;;;;;11.35;10.15;;;22.40;75.50;;;23.18;57.57;94922.06;5010440;28;20208;-80
2021/09/15 08:25:49;;;;;;;11.60;10.40;;;22.50;75.40;;;23.25;56.84;94919.88;5009981;28;20712;-80
2021/09/15 08:28:17;;;;;;;10.90;9.80;;;22.60;75.10;;;23.33;56.70;94913.97;4994051;28;20229;-80
2021/09/15 08:30:44;;;;;;;13.05;10.63;;;22.70;75.00;;;23.42;56.41;94916.88;5009967;28;20662;-80
2021/09/15 08:33:11;;;;;;;11.35;10.25;;;22.80;74.80;;;23.47;56.46;94916.06;5010224;28;20279;-80
2021/09/15 08:35:40;;;;;;;11.20;10.10;;;22.90;74.70;;;23.52;56.37;94921.41;4993919;28;20218;-81
2021/09/15 08:38:11;;;;;;;11.05;9.95;;;23.00;74.40;;;23.57;56.05;94924.09;5026536;28;20204;-80
2021/09/15 08:40:40;;;;;;;11.43;10.32;;;23.00;73.90;;;23.60;55.92;94915.50;4995815;28;20760;-81
2021/09/15 08:43:08;;;;;;;10.95;9.85;;;23.10;74.00;;;23.64;55.47;94919.25;4995538;28;20262;-81
2021/09/15 08:45:35;;;;;;;11.85;10.38;;;23.10;73.70;;;23.70;55.71;94921.88;5011561;28;20237;-80
2021/09/15 08:48:04;;;;;;;11.10;10.05;;;23.20;73.70;;;23.74;55.52;94922.94;4995575;28;20200;-81
2021/09/15 08:50:31;;;;;;;10.57;9.48;;;23.20;73.60;;;23.75;55.38;94914.63;5028007;28;20248;-81
2021/09/15 08:52:58;;;;;;;10.80;9.80;;;23.30;73.60;;;23.80;55.23;94914.63;5024589;28;20197;-79
2021/09/15 08:55:26;;;;;;;13.80;9.35;;;23.30;73.60;;;23.88;55.22;94923.16;5011448;28;20323;-78
2021/09/15 08:57:53;;;;;;;10.65;9.55;;;23.30;73.30;;;23.94;54.97;94919.41;5018778;28;20216;-78
2021/09/15 09:00:20;;;;;;;11.32;10.25;;;23.40;73.10;;;23.99;54.47;94916.69;5024118;28;20247;-78
2021/09/15 09:02:52;;;;;;;13.00;9.77;;;23.50;73.00;;;24.04;54.59;94921.22;5018755;28;20702;-79
2021/09/15 09:05:22;;;;;;;12.93;9.68;;;23.50;72.60;;;24.06;54.54;94916.34;5027267;28;20228;-79
2021/09/15 09:07:49;;;;;;;12.10;9.90;;;23.50;72.70;;;24.12;54.13;94915.25;4987431;28;20193;-79
2021/09/15 09:10:16;;;;;;;9.90;9.00;;;23.50;72.70;;;24.19;54.79;94909.59;5020002;28;20193;-78
2021/09/15 09:12:46;;;;;;;9.88;8.98;;;23.60;73.00;;;24.28;54.61;94910.63;5001919;28;20714;-78
2021/09/15 09:15:26;;;;;;;11.18;10.02;;;23.70;72.90;;;24.38;54.35;94920.47;5011385;28;20217;-78
2021/09/15 09:18:09;;;;;;;11.77;10.55;;;23.70;72.50;;;24.49;54.71;94915.84;5012309;28;20231;-79
2021/09/15 09:20:37;;;;;;;10.68;9.50;;;23.80;73.00;;;24.53;54.23;94909.59;5004755;28;20750;-79
2021/09/15 09:23:18;;;;;;;10.93;9.88;;;23.90;72.80;;;24.60;53.96;94909.31;5009840;28;20200;-79
2021/09/15 09:25:57;;;;;;;9.93;8.95;;;23.90;72.30;;;24.64;53.95;94915.69;5025046;28;20244;-79
2021/09/15 09:28:40;;;;;;;10.65;9.57;;;24.00;72.30;;;24.68;53.81;94916.78;5008347;28;20595;-80
2021/09/15 09:31:11;;;;;;;10.88;9.73;;;24.10;72.50;;;24.70;53.59;94919.16;4993999;28;20221;-80
2021/09/15 09:34:04;;;;;;;14.65;9.88;;;24.10;72.00;;;24.73;53.76;94921.28;5008123;28;20235;-79
2021/09/15 09:36:32;;;;;;;11.00;9.65;;;24.10;72.10;;;24.74;53.47;94915.66;5009091;28;20230;-78
2021/09/15 09:39:10;;;;;;;10.15;9.23;;;24.20;71.90;;;24.75;52.82;94906.50;4993316;28;20192;-80
2021/09/15 09:41:37;;;;;;;12.82;10.98;;;24.20;71.50;;;24.75;53.09;94905.72;5009179;28;20224;-80
2021/09/15 09:44:05;;;;;;;11.15;10.05;;;24.20;71.60;;;24.71;53.22;94897.41;4994938;28;20224;-80
2021/09/15 09:46:35;;;;;;;11.15;9.90;;;24.30;71.60;;;24.73;53.22;94907.84;5010977;28;20244;-79
2021/09/15 09:49:14;;;;;;;11.70;10.60;;;24.30;71.60;;;24.71;53.22;94902.00;4998248;28;20238;-78
2021/09/15 09:51:41;;;;;;;10.82;9.73;;;24.30;71.40;;;24.73;53.24;94905.19;4994711;28;20270;-80
2021/09/15 09:54:11;;;;;;;11.07;9.98;;;24.30;71.70;;;24.76;53.17;94896.59;4994935;28;20561;-79
2021/09/15 09:56:42;;;;;;;11.45;10.32;;;24.30;71.70;;;24.81;53.24;94896.53;4994984;28;20576;-79
2021/09/15 09:59:12;;;;;;;12.63;9.90;;;24.30;71.50;;;24.88;53.44;94894.31;5001069;28;20209;-79
2021/09/15 10:01:46;;;;;;;11.40;10.30;;;24.30;71.50;;;24.94;53.28;94895.88;4994784;28;20698;-80
2021/09/15 10:04:16;;;;;;;11.30;9.65;;;24.40;71.30;;;25.04;53.38;94892.28;5010957;28;20205;-79
2021/09/15 10:06:44;;;;;;;11.27;10.18;;;24.40;71.80;;;25.12;52.76;94888.19;5010723;28;20800;-80
2021/09/15 10:09:12;;;;;;;11.57;10.25;;;24.50;71.70;;;25.17;52.79;94874.72;5011925;28;20634;-80
2021/09/15 10:11:42;;;;;;;11.35;10.20;;;24.50;71.50;;;25.25;52.71;94874.09;4994624;28;20216;-79
2021/09/15 10:14:14;;;;;;;12.15;10.90;;;24.60;71.40;;;25.35;52.27;94872.34;5010824;28;20201;-78
2021/09/15 10:16:51;;;;;;;10.70;9.65;;;24.70;71.30;;;25.40;52.16;94867.75;5010731;28;20253;-79
2021/09/15 10:19:31;;;;;;;11.65;10.23;;;24.70;71.30;;;25.49;52.33;94861.75;5029842;28;20200;-79
2021/09/15 10:22:03;;;;;;;12.15;10.38;;;24.80;71.30;;;25.56;52.39;94865.69;5014782;28;20247;-78
2021/09/15 10:24:56;;;;;;;10.50;9.52;;;24.90;71.10;;;25.64;52.61;94860.75;5014361;28;20189;-79
2021/09/15 10:27:29;;;;;;;11.82;9.32;;;24.90;71.10;;;25.75;52.25;94864.13;5017260;28;20231;-79
2021/09/15 10:30:05;;;;;;;12.13;9.57;;;25.00;71.40;;;25.85;52.43;94859.41;5017862;28;20193;-78
2021/09/15 10:32:36;;;;;;;11.85;10.52;;;25.10;71.20;;;25.99;52.23;94859.47;5031396;28;20242;-77
2021/09/15 10:35:09;;;;;;;12.82;10.10;;;25.20;71.00;;;26.10;51.57;94862.03;5014324;28;20248;-77